sensor_id;sensor_type;location;lat;lon;timestamp;temperature;humidity
21823;DHT22;11074;48.596;9.238;2023-10-31T00:02:16;12.30;99.90
21823;DHT22;11074;48.596;9.238;2023-10-31T00:04:42;12.30;99.90
21823;DHT22;11074;48.596;9.238;2023-10-31T00:07:07;12.40;99.90
21823;DHT22;11074;48.596;9.238;2023-10-31T00:09:33;12.40;99.90
21823;DHT22;11074;48.596;9.238;2023-10-31T00:11:59;12.40;99.90
21823;DHT22;11074;48.596;9.238;2023-10-31T00:14:25;12.40;99.90
21823;DHT22;11074;48.596;9.238;2023-10-31T00:16:50;12.40;99.90
21823;DHT22;11074;48.596;9.238;2023-10-31T00:19:16;12.20;99.90
21823;DHT22;11074;48.596;9.238;2023-10-31T00:21:42;12.30;99.90
21823;DHT22;11074;48.596;9.238;2023-10-31T00:24:08;12.30;99.90
21823;DHT22;11074;48.596;9.238;2023-10-31T00:26:33;12.20;99.90
21823;DHT22;11074;48.596;9.238;2023-10-31T00:28:59;12.20;99.90
21823;DHT22;11074;48.596;9.238;2023-10-31T00:31:25;12.30;99.90
21823;DHT22;11074;48.596;9.238;2023-10-31T00:33:50;12.30;99.90
21823;DHT22;11074;48.596;9.238;2023-10-31T00:36:16;12.40;99.90
21823;DHT22;11074;48.596;9.238;2023-10-31T00:38:42;12.40;99.90
21823;DHT22;11074;48.596;9.238;2023-10-31T00:41:07;12.40;99.90
21823;DHT22;11074;48.596;9.238;2023-10-31T00:43:33;12.40;99.90
21823;DHT22;11074;48.596;9.238;2023-10-31T00:45:59;12.30;99.90
21823;DHT22;11074;48.596;9.238;2023-10-31T00:48:24;12.30;99.90
21823;DHT22;11074;48.596;9.238;2023-10-31T00:50:50;12.30;99.90
21823;DHT22;11074;48.596;9.238;2023-10-31T00:53:16;12.30;99.90
21823;DHT22;11074;48.596;9.238;2023-10-31T00:55:42;12.30;99.90
21823;DHT22;11074;48.596;9.238;2023-10-31T00:58:08;12.20;99.90
21823;DHT22;11074;48.596;9.238;2023-10-31T01:00:34;12.30;99.90
21823;DHT22;11074;48.596;9.238;2023-10-31T01:02:59;12.30;99.90
21823;DHT22;11074;48.596;9.238;2023-10-31T01:05:25;12.30;99.90
21823;DHT22;11074;48.596;9.238;2023-10-31T01:07:53;12.20;99.90
21823;DHT22;11074;48.596;9.238;2023-10-31T01:10:20;12.20;99.90
21823;DHT22;11074;48.596;9.238;2023-10-31T01:12:45;12.20;99.90
21823;DHT22;11074;48.596;9.238;2023-10-31T01:15:11;12.20;99.90
21823;DHT22;11074;48.596;9.238;2023-10-31T01:17:37;12.20;99.90
21823;DHT22;11074;48.596;9.238;2023-10-31T01:20:03;12.20;99.90
21823;DHT22;11074;48.596;9.238;2023-10-31T01:22:29;12.20;99.90
21823;DHT22;11074;48.596;9.238;2023-10-31T01:24:55;12.20;99.90
21823;DHT22;11074;48.596;9.238;2023-10-31T01:27:20;12.20;99.90
21823;DHT22;11074;48.596;9.238;2023-10-31T01:29:46;12.20;99.90
21823;DHT22;11074;48.596;9.238;2023-10-31T01:32:12;12.10;99.90
21823;DHT22;11074;48.596;9.238;2023-10-31T01:34:37;12.10;99.90
21823;DHT22;11074;48.596;9.238;2023-10-31T01:37:03;12.10;99.90
21823;DHT22;11074;48.596;9.238;2023-10-31T01:39:29;12.10;99.90
21823;DHT22;11074;48.596;9.238;2023-10-31T01:41:55;12.00;99.90
21823;DHT22;11074;48.596;9.238;2023-10-31T01:44:21;12.10;99.90
21823;DHT22;11074;48.596;9.238;2023-10-31T01:46:46;12.10;99.90
21823;DHT22;11074;48.596;9.238;2023-10-31T01:49:13;12.10;99.90
21823;DHT22;11074;48.596;9.238;2023-10-31T01:51:40;12.00;99.90
21823;DHT22;11074;48.596;9.238;2023-10-31T01:54:09;11.90;99.90
21823;DHT22;11074;48.596;9.238;2023-10-31T01:56:35;11.90;99.90
21823;DHT22;11074;48.596;9.238;2023-10-31T01:59:03;11.90;99.90
21823;DHT22;11074;48.596;9.238;2023-10-31T02:01:38;11.90;99.90
21823;DHT22;11074;48.596;9.238;2023-10-31T02:04:07;12.00;99.90
21823;DHT22;11074;48.596;9.238;2023-10-31T02:06:33;11.90;99.90
21823;DHT22;11074;48.596;9.238;2023-10-31T02:08:58;11.90;99.90
21823;DHT22;11074;48.596;9.238;2023-10-31T02:11:24;11.90;99.90
21823;DHT22;11074;48.596;9.238;2023-10-31T02:13:50;11.80;99.90
21823;DHT22;11074;48.596;9.238;2023-10-31T02:16:15;11.90;99.90
21823;DHT22;11074;48.596;9.238;2023-10-31T02:18:41;11.80;99.90
21823;DHT22;11074;48.596;9.238;2023-10-31T02:21:07;11.80;99.90
21823;DHT22;11074;48.596;9.238;2023-10-31T02:23:33;11.80;99.90
21823;DHT22;11074;48.596;9.238;2023-10-31T02:25:59;11.80;99.90
21823;DHT22;11074;48.596;9.238;2023-10-31T02:28:24;11.80;99.90
21823;DHT22;11074;48.596;9.238;2023-10-31T02:30:53;11.70;99.90
21823;DHT22;11074;48.596;9.238;2023-10-31T02:33:20;11.70;99.90
21823;DHT22;11074;48.596;9.238;2023-10-31T02:35:46;11.70;99.90
21823;DHT22;11074;48.596;9.238;2023-10-31T02:38:12;11.70;99.90
21823;DHT22;11074;48.596;9.238;2023-10-31T02:40:37;11.70;99.90
21823;DHT22;11074;48.596;9.238;2023-10-31T02:43:03;11.70;99.90
21823;DHT22;11074;48.596;9.238;2023-10-31T02:45:29;11.80;99.90
21823;DHT22;11074;48.596;9.238;2023-10-31T02:47:55;11.80;99.90
21823;DHT22;11074;48.596;9.238;2023-10-31T02:50:21;11.70;99.90
21823;DHT22;11074;48.596;9.238;2023-10-31T02:52:46;11.70;99.90
21823;DHT22;11074;48.596;9.238;2023-10-31T02:55:12;11.70;99.90
21823;DHT22;11074;48.596;9.238;2023-10-31T02:57:38;11.80;99.90
21823;DHT22;11074;48.596;9.238;2023-10-31T03:00:04;11.80;99.90
21823;DHT22;11074;48.596;9.238;2023-10-31T03:02:30;11.80;99.90
21823;DHT22;11074;48.596;9.238;2023-10-31T03:04:55;11.80;99.90
21823;DHT22;11074;48.596;9.238;2023-10-31T03:07:21;11.80;99.90
21823;DHT22;11074;48.596;9.238;2023-10-31T03:09:47;11.80;99.90
21823;DHT22;11074;48.596;9.238;2023-10-31T03:12:12;11.70;99.90
21823;DHT22;11074;48.596;9.238;2023-10-31T03:14:38;11.70;99.90
21823;DHT22;11074;48.596;9.238;2023-10-31T03:17:04;11.70;99.90
21823;DHT22;11074;48.596;9.238;2023-10-31T03:19:29;11.70;99.90
21823;DHT22;11074;48.596;9.238;2023-10-31T03:21:55;11.70;99.90
21823;DHT22;11074;48.596;9.238;2023-10-31T03:24:21;11.70;99.90
21823;DHT22;11074;48.596;9.238;2023-10-31T03:26:46;11.70;99.90
21823;DHT22;11074;48.596;9.238;2023-10-31T03:29:12;11.70;99.90
21823;DHT22;11074;48.596;9.238;2023-10-31T03:31:38;11.70;99.90
21823;DHT22;11074;48.596;9.238;2023-10-31T03:34:03;11.70;99.90
21823;DHT22;11074;48.596;9.238;2023-10-31T03:36:29;11.70;99.90
21823;DHT22;11074;48.596;9.238;2023-10-31T03:38:56;11.70;99.90
21823;DHT22;11074;48.596;9.238;2023-10-31T03:41:21;11.70;99.90
21823;DHT22;11074;48.596;9.238;2023-10-31T03:43:47;11.70;99.90
21823;DHT22;11074;48.596;9.238;2023-10-31T03:46:12;11.70;99.90
21823;DHT22;11074;48.596;9.238;2023-10-31T03:48:38;11.70;99.90
21823;DHT22;11074;48.596;9.238;2023-10-31T03:51:04;11.60;99.90
21823;DHT22;11074;48.596;9.238;2023-10-31T03:53:29;11.60;99.90
21823;DHT22;11074;48.596;9.238;2023-10-31T03:55:55;11.60;99.90
21823;DHT22;11074;48.596;9.238;2023-10-31T03:58:23;11.60;99.90
21823;DHT22;11074;48.596;9.238;2023-10-31T04:00:49;11.60;99.90
21823;DHT22;11074;48.596;9.238;2023-10-31T04:03:15;11.60;99.90
21823;DHT22;11074;48.596;9.238;2023-10-31T04:05:40;11.60;99.90
21823;DHT22;11074;48.596;9.238;2023-10-31T04:08:06;11.60;99.90
21823;DHT22;11074;48.596;9.238;2023-10-31T04:10:32;11.50;99.90
21823;DHT22;11074;48.596;9.238;2023-10-31T04:12:57;11.50;99.90
21823;DHT22;11074;48.596;9.238;2023-10-31T04:15:23;11.50;99.90
21823;DHT22;11074;48.596;9.238;2023-10-31T04:17:49;11.60;99.90
21823;DHT22;11074;48.596;9.238;2023-10-31T04:20:14;11.60;99.90
21823;DHT22;11074;48.596;9.238;2023-10-31T04:22:40;11.50;99.90
21823;DHT22;11074;48.596;9.238;2023-10-31T04:25:06;11.50;99.90
21823;DHT22;11074;48.596;9.238;2023-10-31T04:27:32;11.50;99.90
21823;DHT22;11074;48.596;9.238;2023-10-31T04:29:57;11.50;99.90
21823;DHT22;11074;48.596;9.238;2023-10-31T04:32:23;11.40;99.90
21823;DHT22;11074;48.596;9.238;2023-10-31T04:34:49;11.40;99.90
21823;DHT22;11074;48.596;9.238;2023-10-31T04:37:15;11.40;99.90
21823;DHT22;11074;48.596;9.238;2023-10-31T04:39:40;11.40;99.90
21823;DHT22;11074;48.596;9.238;2023-10-31T04:42:06;11.10;99.90
21823;DHT22;11074;48.596;9.238;2023-10-31T04:44:31;11.10;99.90
21823;DHT22;11074;48.596;9.238;2023-10-31T04:46:57;11.20;99.90
21823;DHT22;11074;48.596;9.238;2023-10-31T04:49:23;11.30;99.90
21823;DHT22;11074;48.596;9.238;2023-10-31T04:51:48;11.30;99.90
21823;DHT22;11074;48.596;9.238;2023-10-31T04:54:14;11.40;99.90
21823;DHT22;11074;48.596;9.238;2023-10-31T04:56:40;11.40;99.90
21823;DHT22;11074;48.596;9.238;2023-10-31T04:59:05;11.40;99.90
21823;DHT22;11074;48.596;9.238;2023-10-31T05:01:31;11.40;99.90
21823;DHT22;11074;48.596;9.238;2023-10-31T05:03:57;11.40;99.90
21823;DHT22;11074;48.596;9.238;2023-10-31T05:06:22;11.40;99.90
21823;DHT22;11074;48.596;9.238;2023-10-31T05:08:48;11.50;99.90
21823;DHT22;11074;48.596;9.238;2023-10-31T05:11:17;11.40;99.90
21823;DHT22;11074;48.596;9.238;2023-10-31T05:13:44;11.50;99.90
21823;DHT22;11074;48.596;9.238;2023-10-31T05:16:10;11.50;99.90
21823;DHT22;11074;48.596;9.238;2023-10-31T05:18:37;11.50;99.90
21823;DHT22;11074;48.596;9.238;2023-10-31T05:21:04;11.40;99.90
21823;DHT22;11074;48.596;9.238;2023-10-31T05:23:30;11.40;99.90
21823;DHT22;11074;48.596;9.238;2023-10-31T05:25:56;11.40;99.90
21823;DHT22;11074;48.596;9.238;2023-10-31T05:28:21;11.20;99.90
21823;DHT22;11074;48.596;9.238;2023-10-31T05:30:48;11.20;99.90
21823;DHT22;11074;48.596;9.238;2023-10-31T05:33:15;11.20;99.90
21823;DHT22;11074;48.596;9.238;2023-10-31T05:35:41;11.10;99.90
21823;DHT22;11074;48.596;9.238;2023-10-31T05:38:08;11.10;99.90
21823;DHT22;11074;48.596;9.238;2023-10-31T05:40:34;11.10;99.90
21823;DHT22;11074;48.596;9.238;2023-10-31T05:43:01;11.10;99.90
21823;DHT22;11074;48.596;9.238;2023-10-31T05:45:28;11.10;99.90
21823;DHT22;11074;48.596;9.238;2023-10-31T05:47:54;11.10;99.90
21823;DHT22;11074;48.596;9.238;2023-10-31T05:50:19;11.10;99.90
21823;DHT22;11074;48.596;9.238;2023-10-31T05:52:46;11.00;99.90
21823;DHT22;11074;48.596;9.238;2023-10-31T05:55:11;11.00;99.90
21823;DHT22;11074;48.596;9.238;2023-10-31T05:57:37;11.00;99.90
21823;DHT22;11074;48.596;9.238;2023-10-31T06:00:03;11.00;99.90
21823;DHT22;11074;48.596;9.238;2023-10-31T06:02:29;11.00;99.90
21823;DHT22;11074;48.596;9.238;2023-10-31T06:04:55;11.10;99.90
21823;DHT22;11074;48.596;9.238;2023-10-31T06:07:21;11.10;99.90
21823;DHT22;11074;48.596;9.238;2023-10-31T06:09:46;11.10;99.90
21823;DHT22;11074;48.596;9.238;2023-10-31T06:12:12;11.10;99.90
21823;DHT22;11074;48.596;9.238;2023-10-31T06:14:38;11.10;99.90
21823;DHT22;11074;48.596;9.238;2023-10-31T06:17:03;11.10;99.90
21823;DHT22;11074;48.596;9.238;2023-10-31T06:19:32;11.00;99.90
21823;DHT22;11074;48.596;9.238;2023-10-31T06:21:59;11.00;99.90
21823;DHT22;11074;48.596;9.238;2023-10-31T06:24:25;11.00;99.90
21823;DHT22;11074;48.596;9.238;2023-10-31T06:26:50;10.90;99.90
21823;DHT22;11074;48.596;9.238;2023-10-31T06:29:16;10.90;99.90
21823;DHT22;11074;48.596;9.238;2023-10-31T06:31:42;11.00;99.90
21823;DHT22;11074;48.596;9.238;2023-10-31T06:34:08;11.00;99.90
21823;DHT22;11074;48.596;9.238;2023-10-31T06:36:34;10.90;99.90
21823;DHT22;11074;48.596;9.238;2023-10-31T06:38:59;10.90;99.90
21823;DHT22;11074;48.596;9.238;2023-10-31T06:41:25;10.90;99.90
21823;DHT22;11074;48.596;9.238;2023-10-31T06:43:51;11.00;99.90
21823;DHT22;11074;48.596;9.238;2023-10-31T06:46:17;11.00;99.90
21823;DHT22;11074;48.596;9.238;2023-10-31T06:48:43;11.00;99.90
21823;DHT22;11074;48.596;9.238;2023-10-31T06:51:09;11.00;99.90
21823;DHT22;11074;48.596;9.238;2023-10-31T06:53:34;11.10;99.90
21823;DHT22;11074;48.596;9.238;2023-10-31T06:56:00;11.00;99.90
21823;DHT22;11074;48.596;9.238;2023-10-31T06:58:26;11.00;99.90
21823;DHT22;11074;48.596;9.238;2023-10-31T07:00:51;10.90;99.90
21823;DHT22;11074;48.596;9.238;2023-10-31T07:03:17;10.90;99.90
21823;DHT22;11074;48.596;9.238;2023-10-31T07:05:43;11.00;99.90
21823;DHT22;11074;48.596;9.238;2023-10-31T07:08:08;10.90;99.90
21823;DHT22;11074;48.596;9.238;2023-10-31T07:10:35;10.90;99.90
21823;DHT22;11074;48.596;9.238;2023-10-31T07:13:00;11.00;99.90
21823;DHT22;11074;48.596;9.238;2023-10-31T07:15:26;11.00;99.90
21823;DHT22;11074;48.596;9.238;2023-10-31T07:17:52;11.00;99.90
21823;DHT22;11074;48.596;9.238;2023-10-31T07:20:18;11.00;99.90
21823;DHT22;11074;48.596;9.238;2023-10-31T07:22:46;11.00;99.90
21823;DHT22;11074;48.596;9.238;2023-10-31T07:25:12;10.90;99.90
21823;DHT22;11074;48.596;9.238;2023-10-31T07:27:37;11.00;99.90
21823;DHT22;11074;48.596;9.238;2023-10-31T07:30:04;11.00;99.90
21823;DHT22;11074;48.596;9.238;2023-10-31T07:32:31;11.00;99.90
21823;DHT22;11074;48.596;9.238;2023-10-31T07:34:57;10.90;99.90
21823;DHT22;11074;48.596;9.238;2023-10-31T07:37:25;10.90;99.90
21823;DHT22;11074;48.596;9.238;2023-10-31T07:39:51;10.90;99.90
21823;DHT22;11074;48.596;9.238;2023-10-31T07:42:17;10.90;99.90
21823;DHT22;11074;48.596;9.238;2023-10-31T07:44:42;11.00;99.90
21823;DHT22;11074;48.596;9.238;2023-10-31T07:47:08;11.10;99.90
21823;DHT22;11074;48.596;9.238;2023-10-31T07:49:34;11.20;99.90
21823;DHT22;11074;48.596;9.238;2023-10-31T07:51:59;11.20;99.90
21823;DHT22;11074;48.596;9.238;2023-10-31T07:54:25;11.10;99.90
21823;DHT22;11074;48.596;9.238;2023-10-31T07:56:51;11.20;99.90
21823;DHT22;11074;48.596;9.238;2023-10-31T07:59:16;11.00;99.90
21823;DHT22;11074;48.596;9.238;2023-10-31T08:01:42;10.80;99.90
21823;DHT22;11074;48.596;9.238;2023-10-31T08:04:08;10.90;99.90
21823;DHT22;11074;48.596;9.238;2023-10-31T08:06:34;10.80;99.90
21823;DHT22;11074;48.596;9.238;2023-10-31T08:09:00;10.70;99.90
21823;DHT22;11074;48.596;9.238;2023-10-31T08:11:25;10.60;99.90
21823;DHT22;11074;48.596;9.238;2023-10-31T08:13:52;10.60;99.90
21823;DHT22;11074;48.596;9.238;2023-10-31T08:16:18;10.60;99.90
21823;DHT22;11074;48.596;9.238;2023-10-31T08:18:45;10.70;99.90
21823;DHT22;11074;48.596;9.238;2023-10-31T08:21:12;10.70;99.90
21823;DHT22;11074;48.596;9.238;2023-10-31T08:23:38;10.80;99.90
21823;DHT22;11074;48.596;9.238;2023-10-31T08:26:04;10.80;99.90
21823;DHT22;11074;48.596;9.238;2023-10-31T08:28:29;10.90;99.90
21823;DHT22;11074;48.596;9.238;2023-10-31T08:30:56;10.90;99.90
21823;DHT22;11074;48.596;9.238;2023-10-31T08:33:23;10.80;99.90
21823;DHT22;11074;48.596;9.238;2023-10-31T08:35:48;10.90;99.90
21823;DHT22;11074;48.596;9.238;2023-10-31T08:38:14;11.00;99.90
21823;DHT22;11074;48.596;9.238;2023-10-31T08:40:41;11.10;99.90
21823;DHT22;11074;48.596;9.238;2023-10-31T08:43:07;11.10;99.90
21823;DHT22;11074;48.596;9.238;2023-10-31T08:45:33;11.10;99.90
21823;DHT22;11074;48.596;9.238;2023-10-31T08:47:59;11.10;99.90
21823;DHT22;11074;48.596;9.238;2023-10-31T08:50:25;11.20;99.90
21823;DHT22;11074;48.596;9.238;2023-10-31T08:52:51;11.30;99.90
21823;DHT22;11074;48.596;9.238;2023-10-31T08:55:17;11.30;99.90
21823;DHT22;11074;48.596;9.238;2023-10-31T08:57:43;11.30;99.90
21823;DHT22;11074;48.596;9.238;2023-10-31T09:00:09;11.30;99.90
21823;DHT22;11074;48.596;9.238;2023-10-31T09:02:35;11.30;99.90
21823;DHT22;11074;48.596;9.238;2023-10-31T09:05:00;11.30;99.90
21823;DHT22;11074;48.596;9.238;2023-10-31T09:07:26;11.40;99.90
21823;DHT22;11074;48.596;9.238;2023-10-31T09:09:52;11.50;99.90
21823;DHT22;11074;48.596;9.238;2023-10-31T09:12:18;11.50;99.90
21823;DHT22;11074;48.596;9.238;2023-10-31T09:14:44;11.50;99.90
21823;DHT22;11074;48.596;9.238;2023-10-31T09:17:09;11.50;99.90
21823;DHT22;11074;48.596;9.238;2023-10-31T09:19:35;11.60;99.90
21823;DHT22;11074;48.596;9.238;2023-10-31T09:22:00;11.60;99.90
21823;DHT22;11074;48.596;9.238;2023-10-31T09:24:26;11.70;99.90
21823;DHT22;11074;48.596;9.238;2023-10-31T09:26:52;11.60;99.90
21823;DHT22;11074;48.596;9.238;2023-10-31T09:29:17;11.70;99.90
21823;DHT22;11074;48.596;9.238;2023-10-31T09:31:43;11.60;99.90
21823;DHT22;11074;48.596;9.238;2023-10-31T09:34:09;11.70;99.90
21823;DHT22;11074;48.596;9.238;2023-10-31T09:36:35;11.70;99.90
21823;DHT22;11074;48.596;9.238;2023-10-31T09:39:01;11.70;99.90
21823;DHT22;11074;48.596;9.238;2023-10-31T09:41:26;11.80;99.90
21823;DHT22;11074;48.596;9.238;2023-10-31T09:43:53;11.80;99.90
21823;DHT22;11074;48.596;9.238;2023-10-31T09:46:19;11.80;99.90
21823;DHT22;11074;48.596;9.238;2023-10-31T09:48:46;11.80;99.90
21823;DHT22;11074;48.596;9.238;2023-10-31T09:51:14;11.90;99.90
21823;DHT22;11074;48.596;9.238;2023-10-31T09:53:42;11.90;99.90
21823;DHT22;11074;48.596;9.238;2023-10-31T09:56:10;12.10;99.90
21823;DHT22;11074;48.596;9.238;2023-10-31T09:58:36;12.20;99.90
21823;DHT22;11074;48.596;9.238;2023-10-31T10:01:02;12.20;99.90
21823;DHT22;11074;48.596;9.238;2023-10-31T10:03:29;12.30;99.90
21823;DHT22;11074;48.596;9.238;2023-10-31T10:05:55;12.40;99.90
21823;DHT22;11074;48.596;9.238;2023-10-31T10:08:22;12.50;99.90
21823;DHT22;11074;48.596;9.238;2023-10-31T10:10:48;12.50;99.90
21823;DHT22;11074;48.596;9.238;2023-10-31T10:13:19;12.50;99.90
21823;DHT22;11074;48.596;9.238;2023-10-31T10:15:50;12.50;99.90
21823;DHT22;11074;48.596;9.238;2023-10-31T10:18:28;12.40;99.90
21823;DHT22;11074;48.596;9.238;2023-10-31T10:20:59;12.40;99.90
21823;DHT22;11074;48.596;9.238;2023-10-31T10:23:29;12.40;99.90
21823;DHT22;11074;48.596;9.238;2023-10-31T10:25:57;12.30;99.90
21823;DHT22;11074;48.596;9.238;2023-10-31T10:28:24;12.30;99.90
21823;DHT22;11074;48.596;9.238;2023-10-31T10:30:51;12.20;99.90
21823;DHT22;11074;48.596;9.238;2023-10-31T10:33:19;12.20;99.90
21823;DHT22;11074;48.596;9.238;2023-10-31T10:35:46;12.10;99.90
21823;DHT22;11074;48.596;9.238;2023-10-31T10:38:17;12.20;99.90
21823;DHT22;11074;48.596;9.238;2023-10-31T10:40:45;12.20;99.90
21823;DHT22;11074;48.596;9.238;2023-10-31T10:43:20;12.10;99.90
21823;DHT22;11074;48.596;9.238;2023-10-31T10:45:55;12.20;99.90
21823;DHT22;11074;48.596;9.238;2023-10-31T10:48:24;12.20;99.90
21823;DHT22;11074;48.596;9.238;2023-10-31T10:51:04;12.20;99.90
21823;DHT22;11074;48.596;9.238;2023-10-31T10:53:57;12.20;99.90
21823;DHT22;11074;48.596;9.238;2023-10-31T10:56:30;12.20;99.90
21823;DHT22;11074;48.596;9.238;2023-10-31T10:59:21;12.20;99.90
21823;DHT22;11074;48.596;9.238;2023-10-31T11:01:59;12.20;99.90
21823;DHT22;11074;48.596;9.238;2023-10-31T11:04:26;12.20;99.90
21823;DHT22;11074;48.596;9.238;2023-10-31T11:06:53;12.20;99.90
21823;DHT22;11074;48.596;9.238;2023-10-31T11:09:19;12.10;99.90
21823;DHT22;11074;48.596;9.238;2023-10-31T11:11:46;12.20;99.90
21823;DHT22;11074;48.596;9.238;2023-10-31T11:14:15;12.20;99.90
21823;DHT22;11074;48.596;9.238;2023-10-31T11:16:52;12.20;99.90
21823;DHT22;11074;48.596;9.238;2023-10-31T11:19:22;12.30;99.90
21823;DHT22;11074;48.596;9.238;2023-10-31T11:22:01;12.30;99.90
21823;DHT22;11074;48.596;9.238;2023-10-31T11:24:37;12.30;99.90
21823;DHT22;11074;48.596;9.238;2023-10-31T11:27:06;12.30;99.90
21823;DHT22;11074;48.596;9.238;2023-10-31T11:29:36;12.40;99.90
21823;DHT22;11074;48.596;9.238;2023-10-31T11:32:02;12.50;99.90
21823;DHT22;11074;48.596;9.238;2023-10-31T11:34:30;12.60;99.90
21823;DHT22;11074;48.596;9.238;2023-10-31T11:37:24;12.60;99.90
21823;DHT22;11074;48.596;9.238;2023-10-31T11:42:41;12.80;99.90
21823;DHT22;11074;48.596;9.238;2023-10-31T11:45:10;12.80;99.90
21823;DHT22;11074;48.596;9.238;2023-10-31T11:47:51;12.90;99.90
21823;DHT22;11074;48.596;9.238;2023-10-31T11:50:18;13.00;99.90
21823;DHT22;11074;48.596;9.238;2023-10-31T11:52:43;13.00;99.90
21823;DHT22;11074;48.596;9.238;2023-10-31T11:55:13;13.00;99.90
21823;DHT22;11074;48.596;9.238;2023-10-31T11:57:39;13.10;99.90
21823;DHT22;11074;48.596;9.238;2023-10-31T12:00:06;13.10;99.90
21823;DHT22;11074;48.596;9.238;2023-10-31T12:02:35;13.00;99.90
21823;DHT22;11074;48.596;9.238;2023-10-31T12:05:11;13.00;99.90
21823;DHT22;11074;48.596;9.238;2023-10-31T12:07:44;13.00;99.90
21823;DHT22;11074;48.596;9.238;2023-10-31T12:10:11;13.10;99.90
21823;DHT22;11074;48.596;9.238;2023-10-31T12:12:37;13.10;99.90
21823;DHT22;11074;48.596;9.238;2023-10-31T12:15:09;13.20;99.90
21823;DHT22;11074;48.596;9.238;2023-10-31T12:17:36;13.30;99.90
21823;DHT22;11074;48.596;9.238;2023-10-31T12:20:06;13.40;99.90
21823;DHT22;11074;48.596;9.238;2023-10-31T12:22:34;13.50;99.90
21823;DHT22;11074;48.596;9.238;2023-10-31T12:25:02;13.60;99.90
21823;DHT22;11074;48.596;9.238;2023-10-31T12:27:48;13.60;99.90
21823;DHT22;11074;48.596;9.238;2023-10-31T12:30:20;13.50;99.90
21823;DHT22;11074;48.596;9.238;2023-10-31T12:32:54;13.50;99.90
21823;DHT22;11074;48.596;9.238;2023-10-31T12:35:23;13.50;99.90
21823;DHT22;11074;48.596;9.238;2023-10-31T12:37:51;13.40;99.90
21823;DHT22;11074;48.596;9.238;2023-10-31T12:40:19;13.40;99.90
21823;DHT22;11074;48.596;9.238;2023-10-31T12:42:48;13.30;99.90
21823;DHT22;11074;48.596;9.238;2023-10-31T12:45:15;13.30;99.90
21823;DHT22;11074;48.596;9.238;2023-10-31T12:48:00;13.30;99.90
21823;DHT22;11074;48.596;9.238;2023-10-31T12:50:28;13.20;99.90
21823;DHT22;11074;48.596;9.238;2023-10-31T12:52:54;13.20;99.90
21823;DHT22;11074;48.596;9.238;2023-10-31T12:55:24;13.10;99.90
21823;DHT22;11074;48.596;9.238;2023-10-31T12:57:51;13.10;99.90
21823;DHT22;11074;48.596;9.238;2023-10-31T13:00:18;13.00;99.90
21823;DHT22;11074;48.596;9.238;2023-10-31T13:03:06;13.00;99.90
21823;DHT22;11074;48.596;9.238;2023-10-31T13:05:37;12.90;99.90
21823;DHT22;11074;48.596;9.238;2023-10-31T13:08:13;12.80;99.90
21823;DHT22;11074;48.596;9.238;2023-10-31T13:10:41;12.70;99.90
21823;DHT22;11074;48.596;9.238;2023-10-31T13:13:08;12.70;99.90
21823;DHT22;11074;48.596;9.238;2023-10-31T13:15:34;12.70;99.90
21823;DHT22;11074;48.596;9.238;2023-10-31T13:18:02;12.70;99.90
21823;DHT22;11074;48.596;9.238;2023-10-31T13:20:28;12.70;99.90
21823;DHT22;11074;48.596;9.238;2023-10-31T13:22:54;12.60;99.90
21823;DHT22;11074;48.596;9.238;2023-10-31T13:25:20;12.60;99.90
21823;DHT22;11074;48.596;9.238;2023-10-31T13:27:46;12.60;99.90
21823;DHT22;11074;48.596;9.238;2023-10-31T13:30:17;12.60;99.90
21823;DHT22;11074;48.596;9.238;2023-10-31T13:32:43;12.60;99.90
21823;DHT22;11074;48.596;9.238;2023-10-31T13:35:09;12.60;99.90
21823;DHT22;11074;48.596;9.238;2023-10-31T13:37:36;12.60;99.90
21823;DHT22;11074;48.596;9.238;2023-10-31T13:40:03;12.70;99.90
21823;DHT22;11074;48.596;9.238;2023-10-31T13:42:29;12.70;99.90
21823;DHT22;11074;48.596;9.238;2023-10-31T13:44:55;12.70;99.90
21823;DHT22;11074;48.596;9.238;2023-10-31T13:47:21;12.70;99.90
21823;DHT22;11074;48.596;9.238;2023-10-31T13:49:47;12.70;99.90
21823;DHT22;11074;48.596;9.238;2023-10-31T13:52:14;12.70;99.90
21823;DHT22;11074;48.596;9.238;2023-10-31T13:54:39;12.70;99.90
21823;DHT22;11074;48.596;9.238;2023-10-31T13:57:05;12.80;99.90
21823;DHT22;11074;48.596;9.238;2023-10-31T13:59:31;12.90;99.90
21823;DHT22;11074;48.596;9.238;2023-10-31T14:01:57;13.10;99.90
21823;DHT22;11074;48.596;9.238;2023-10-31T14:04:23;13.20;99.90
21823;DHT22;11074;48.596;9.238;2023-10-31T14:06:48;13.20;99.90
21823;DHT22;11074;48.596;9.238;2023-10-31T14:09:14;13.30;99.90
21823;DHT22;11074;48.596;9.238;2023-10-31T14:11:41;13.30;99.90
21823;DHT22;11074;48.596;9.238;2023-10-31T14:14:07;13.30;99.90
21823;DHT22;11074;48.596;9.238;2023-10-31T14:16:42;13.30;99.90
21823;DHT22;11074;48.596;9.238;2023-10-31T14:19:11;13.30;99.90
21823;DHT22;11074;48.596;9.238;2023-10-31T14:21:38;13.30;99.90
21823;DHT22;11074;48.596;9.238;2023-10-31T14:24:04;13.20;99.90
21823;DHT22;11074;48.596;9.238;2023-10-31T14:26:31;13.30;99.90
21823;DHT22;11074;48.596;9.238;2023-10-31T14:28:58;13.30;99.90
21823;DHT22;11074;48.596;9.238;2023-10-31T14:31:24;13.30;99.90
21823;DHT22;11074;48.596;9.238;2023-10-31T14:33:50;13.30;99.90
21823;DHT22;11074;48.596;9.238;2023-10-31T14:36:16;13.20;99.90
21823;DHT22;11074;48.596;9.238;2023-10-31T14:38:42;13.10;99.90
21823;DHT22;11074;48.596;9.238;2023-10-31T14:41:08;13.10;99.90
21823;DHT22;11074;48.596;9.238;2023-10-31T14:43:34;13.00;99.90
21823;DHT22;11074;48.596;9.238;2023-10-31T14:46:01;13.10;99.90
21823;DHT22;11074;48.596;9.238;2023-10-31T14:48:27;13.10;99.90
21823;DHT22;11074;48.596;9.238;2023-10-31T14:50:54;13.10;99.90
21823;DHT22;11074;48.596;9.238;2023-10-31T14:53:19;13.10;99.90
21823;DHT22;11074;48.596;9.238;2023-10-31T14:55:46;13.10;99.90
21823;DHT22;11074;48.596;9.238;2023-10-31T14:58:12;13.10;99.90
21823;DHT22;11074;48.596;9.238;2023-10-31T15:00:39;13.00;99.90
21823;DHT22;11074;48.596;9.238;2023-10-31T15:03:05;13.00;99.90
21823;DHT22;11074;48.596;9.238;2023-10-31T15:05:31;13.00;99.90
21823;DHT22;11074;48.596;9.238;2023-10-31T15:07:58;13.00;99.90
21823;DHT22;11074;48.596;9.238;2023-10-31T15:10:24;13.00;99.90
21823;DHT22;11074;48.596;9.238;2023-10-31T15:12:53;12.90;99.90
21823;DHT22;11074;48.596;9.238;2023-10-31T15:15:20;12.90;99.90
21823;DHT22;11074;48.596;9.238;2023-10-31T15:17:46;12.90;99.90
21823;DHT22;11074;48.596;9.238;2023-10-31T15:20:13;12.80;99.90
21823;DHT22;11074;48.596;9.238;2023-10-31T15:22:40;12.70;99.90
21823;DHT22;11074;48.596;9.238;2023-10-31T15:25:08;12.70;99.90
21823;DHT22;11074;48.596;9.238;2023-10-31T15:27:35;12.80;99.90
21823;DHT22;11074;48.596;9.238;2023-10-31T15:30:00;12.70;99.90
21823;DHT22;11074;48.596;9.238;2023-10-31T15:32:26;12.70;99.90